sensor_id;sensor_type;location;lat;lon;timestamp;P1;durP1;ratioP1;P2;durP2;ratioP2
57535;SDS011;43361;49.790;8.960;2022-07-06T00:05:12;0.90;;;0.45;;
57535;SDS011;43361;49.790;8.960;2022-07-06T00:15:14;1.20;;;0.55;;
57535;SDS011;43361;49.790;8.960;2022-07-06T00:25:14;1.83;;;0.45;;
57535;SDS011;43361;49.790;8.960;2022-07-06T00:35:16;1.73;;;0.68;;
57535;SDS011;43361;49.790;8.960;2022-07-06T00:45:17;1.00;;;0.60;;
57535;SDS011;43361;49.790;8.960;2022-07-06T00:55:20;0.88;;;0.50;;
57535;SDS011;43361;49.790;8.960;2022-07-06T01:05:21;1.42;;;0.50;;
57535;SDS011;43361;49.790;8.960;2022-07-06T01:15:23;0.85;;;0.50;;
57535;SDS011;43361;49.790;8.960;2022-07-06T01:25:30;1.95;;;0.73;;
57535;SDS011;43361;49.790;8.960;2022-07-06T01:35:31;1.08;;;0.68;;
57535;SDS011;43361;49.790;8.960;2022-07-06T01:45:34;1.17;;;0.50;;
57535;SDS011;43361;49.790;8.960;2022-07-06T01:55:34;0.90;;;0.50;;
57535;SDS011;43361;49.790;8.960;2022-07-06T02:05:36;1.00;;;0.60;;
57535;SDS011;43361;49.790;8.960;2022-07-06T02:15:37;1.42;;;0.60;;
57535;SDS011;43361;49.790;8.960;2022-07-06T02:25:38;0.85;;;0.50;;
57535;SDS011;43361;49.790;8.960;2022-07-06T02:35:39;1.20;;;0.50;;
57535;SDS011;43361;49.790;8.960;2022-07-06T02:45:44;0.68;;;0.40;;
57535;SDS011;43361;49.790;8.960;2022-07-06T02:55:44;2.08;;;0.50;;
57535;SDS011;43361;49.790;8.960;2022-07-06T03:05:46;1.00;;;0.40;;
57535;SDS011;43361;49.790;8.960;2022-07-06T03:15:48;0.93;;;0.40;;
57535;SDS011;43361;49.790;8.960;2022-07-06T03:25:50;0.77;;;0.45;;
57535;SDS011;43361;49.790;8.960;2022-07-06T03:35:50;0.80;;;0.50;;
57535;SDS011;43361;49.790;8.960;2022-07-06T03:45:52;0.60;;;0.40;;
57535;SDS011;43361;49.790;8.960;2022-07-06T03:55:53;1.20;;;0.55;;
57535;SDS011;43361;49.790;8.960;2022-07-06T04:06:13;1.02;;;0.60;;
57535;SDS011;43361;49.790;8.960;2022-07-06T04:16:14;0.85;;;0.40;;
57535;SDS011;43361;49.790;8.960;2022-07-06T04:26:15;1.02;;;0.47;;
57535;SDS011;43361;49.790;8.960;2022-07-06T04:36:16;2.42;;;0.60;;
57535;SDS011;43361;49.790;8.960;2022-07-06T04:46:18;1.08;;;0.65;;
57535;SDS011;43361;49.790;8.960;2022-07-06T04:56:19;0.70;;;0.45;;
57535;SDS011;43361;49.790;8.960;2022-07-06T05:06:21;1.52;;;0.52;;
57535;SDS011;43361;49.790;8.960;2022-07-06T05:16:22;0.60;;;0.40;;
57535;SDS011;43361;49.790;8.960;2022-07-06T05:26:24;0.73;;;0.35;;
57535;SDS011;43361;49.790;8.960;2022-07-06T05:36:25;0.85;;;0.55;;
57535;SDS011;43361;49.790;8.960;2022-07-06T05:46:26;1.60;;;0.50;;
57535;SDS011;43361;49.790;8.960;2022-07-06T05:56:28;3.70;;;0.60;;
57535;SDS011;43361;49.790;8.960;2022-07-06T06:06:30;4.07;;;0.82;;
57535;SDS011;43361;49.790;8.960;2022-07-06T06:16:31;8.48;;;1.90;;
57535;SDS011;43361;49.790;8.960;2022-07-06T06:26:33;5.82;;;2.17;;
57535;SDS011;43361;49.790;8.960;2022-07-06T06:36:33;8.70;;;2.58;;
57535;SDS011;43361;49.790;8.960;2022-07-06T06:46:35;9.98;;;2.13;;
57535;SDS011;43361;49.790;8.960;2022-07-06T06:56:35;8.75;;;2.15;;
57535;SDS011;43361;49.790;8.960;2022-07-06T07:06:37;7.28;;;2.08;;
57535;SDS011;43361;49.790;8.960;2022-07-06T07:16:38;12.05;;;2.08;;
57535;SDS011;43361;49.790;8.960;2022-07-06T07:26:39;9.15;;;2.10;;
57535;SDS011;43361;49.790;8.960;2022-07-06T07:36:40;5.57;;;1.70;;
57535;SDS011;43361;49.790;8.960;2022-07-06T07:46:41;7.53;;;1.83;;
57535;SDS011;43361;49.790;8.960;2022-07-06T07:56:42;6.45;;;1.88;;
57535;SDS011;43361;49.790;8.960;2022-07-06T08:06:44;11.30;;;2.03;;
57535;SDS011;43361;49.790;8.960;2022-07-06T08:16:44;5.80;;;1.60;;
57535;SDS011;43361;49.790;8.960;2022-07-06T08:26:46;5.18;;;1.92;;
57535;SDS011;43361;49.790;8.960;2022-07-06T08:36:46;7.00;;;2.30;;
57535;SDS011;43361;49.790;8.960;2022-07-06T08:46:48;10.63;;;1.98;;
57535;SDS011;43361;49.790;8.960;2022-07-06T08:56:49;12.30;;;2.22;;
57535;SDS011;43361;49.790;8.960;2022-07-06T09:06:51;13.52;;;1.85;;
57535;SDS011;43361;49.790;8.960;2022-07-06T09:17:01;10.43;;;2.50;;
57535;SDS011;43361;49.790;8.960;2022-07-06T09:27:04;9.00;;;1.80;;
57535;SDS011;43361;49.790;8.960;2022-07-06T09:37:05;9.77;;;2.17;;
57535;SDS011;43361;49.790;8.960;2022-07-06T09:47:07;7.60;;;2.13;;
57535;SDS011;43361;49.790;8.960;2022-07-06T09:57:08;5.53;;;1.85;;
57535;SDS011;43361;49.790;8.960;2022-07-06T10:07:10;6.28;;;1.80;;
57535;SDS011;43361;49.790;8.960;2022-07-06T10:17:11;31.95;;;7.82;;
57535;SDS011;43361;49.790;8.960;2022-07-06T10:27:14;114.28;;;40.63;;
57535;SDS011;43361;49.790;8.960;2022-07-06T10:37:21;74.63;;;25.10;;
57535;SDS011;43361;49.790;8.960;2022-07-06T10:47:28;30.73;;;10.93;;
57535;SDS011;43361;49.790;8.960;2022-07-06T10:57:28;34.53;;;11.90;;
57535;SDS011;43361;49.790;8.960;2022-07-06T11:07:30;33.72;;;12.57;;
57535;SDS011;43361;49.790;8.960;2022-07-06T11:17:30;31.23;;;11.52;;
57535;SDS011;43361;49.790;8.960;2022-07-06T11:27:33;37.15;;;10.95;;
57535;SDS011;43361;49.790;8.960;2022-07-06T11:37:34;29.67;;;9.75;;
57535;SDS011;43361;49.790;8.960;2022-07-06T11:47:36;23.23;;;8.20;;
57535;SDS011;43361;49.790;8.960;2022-07-06T11:57:36;18.33;;;8.13;;
57535;SDS011;43361;49.790;8.960;2022-07-06T12:07:38;16.58;;;7.20;;
57535;SDS011;43361;49.790;8.960;2022-07-06T12:17:39;15.88;;;7.00;;
57535;SDS011;43361;49.790;8.960;2022-07-06T12:27:44;17.58;;;6.47;;
57535;SDS011;43361;49.790;8.960;2022-07-06T12:37:54;14.38;;;5.97;;
57535;SDS011;43361;49.790;8.960;2022-07-06T12:47:59;14.90;;;5.83;;
57535;SDS011;43361;49.790;8.960;2022-07-06T12:58:00;15.93;;;4.97;;
57535;SDS011;43361;49.790;8.960;2022-07-06T13:08:02;10.02;;;4.75;;
57535;SDS011;43361;49.790;8.960;2022-07-06T13:18:02;11.55;;;4.80;;
57535;SDS011;43361;49.790;8.960;2022-07-06T13:28:04;11.32;;;4.18;;
57535;SDS011;43361;49.790;8.960;2022-07-06T13:38:05;11.73;;;4.40;;
57535;SDS011;43361;49.790;8.960;2022-07-06T13:48:06;8.35;;;3.53;;
57535;SDS011;43361;49.790;8.960;2022-07-06T13:58:07;8.88;;;3.95;;
57535;SDS011;43361;49.790;8.960;2022-07-06T14:08:09;10.77;;;3.40;;
57535;SDS011;43361;49.790;8.960;2022-07-06T14:18:10;7.05;;;3.17;;
57535;SDS011;43361;49.790;8.960;2022-07-06T14:28:11;8.88;;;3.33;;
57535;SDS011;43361;49.790;8.960;2022-07-06T14:38:16;6.80;;;2.65;;
57535;SDS011;43361;49.790;8.960;2022-07-06T14:48:19;11.05;;;3.10;;
57535;SDS011;43361;49.790;8.960;2022-07-06T14:58:19;7.60;;;2.85;;
57535;SDS011;43361;49.790;8.960;2022-07-06T15:08:21;7.57;;;2.58;;
57535;SDS011;43361;49.790;8.960;2022-07-06T15:18:21;8.48;;;2.22;;
57535;SDS011;43361;49.790;8.960;2022-07-06T15:28:23;8.65;;;2.10;;
57535;SDS011;43361;49.790;8.960;2022-07-06T15:38:27;9.13;;;2.08;;
57535;SDS011;43361;49.790;8.960;2022-07-06T15:48:29;10.57;;;1.77;;
57535;SDS011;43361;49.790;8.960;2022-07-06T15:58:29;3.28;;;1.40;;
57535;SDS011;43361;49.790;8.960;2022-07-06T16:08:31;12.25;;;1.70;;
57535;SDS011;43361;49.790;8.960;2022-07-06T16:18:32;10.90;;;2.00;;
57535;SDS011;43361;49.790;8.960;2022-07-06T16:28:34;6.78;;;2.08;;
57535;SDS011;43361;49.790;8.960;2022-07-06T16:38:35;7.95;;;1.92;;
57535;SDS011;43361;49.790;8.960;2022-07-06T16:48:37;4.35;;;1.45;;
57535;SDS011;43361;49.790;8.960;2022-07-06T16:58:37;4.85;;;1.58;;
57535;SDS011;43361;49.790;8.960;2022-07-06T17:08:39;10.98;;;1.67;;
57535;SDS011;43361;49.790;8.960;2022-07-06T17:18:40;5.65;;;1.30;;
57535;SDS011;43361;49.790;8.960;2022-07-06T17:28:41;3.35;;;1.35;;
57535;SDS011;43361;49.790;8.960;2022-07-06T17:38:42;7.10;;;1.45;;
57535;SDS011;43361;49.790;8.960;2022-07-06T17:48:44;4.30;;;1.15;;
57535;SDS011;43361;49.790;8.960;2022-07-06T17:58:44;19.33;;;3.35;;
57535;SDS011;43361;49.790;8.960;2022-07-06T18:08:46;6.45;;;2.25;;
57535;SDS011;43361;49.790;8.960;2022-07-06T18:18:47;6.43;;;2.53;;
57535;SDS011;43361;49.790;8.960;2022-07-06T18:28:48;5.32;;;1.73;;
57535;SDS011;43361;49.790;8.960;2022-07-06T18:38:49;10.50;;;1.98;;
57535;SDS011;43361;49.790;8.960;2022-07-06T18:48:52;3.95;;;1.50;;
57535;SDS011;43361;49.790;8.960;2022-07-06T18:58:52;9.40;;;1.70;;
57535;SDS011;43361;49.790;8.960;2022-07-06T19:08:54;5.05;;;1.50;;
57535;SDS011;43361;49.790;8.960;2022-07-06T19:18:55;4.00;;;1.55;;
57535;SDS011;43361;49.790;8.960;2022-07-06T19:28:57;5.68;;;1.25;;
57535;SDS011;43361;49.790;8.960;2022-07-06T19:38:58;3.30;;;0.93;;
57535;SDS011;43361;49.790;8.960;2022-07-06T19:49:00;4.00;;;1.50;;
57535;SDS011;43361;49.790;8.960;2022-07-06T19:59:01;7.57;;;1.50;;
57535;SDS011;43361;49.790;8.960;2022-07-06T20:09:03;6.88;;;1.73;;
57535;SDS011;43361;49.790;8.960;2022-07-06T20:19:03;4.32;;;2.03;;
57535;SDS011;43361;49.790;8.960;2022-07-06T20:29:05;4.43;;;1.67;;
57535;SDS011;43361;49.790;8.960;2022-07-06T20:39:06;1.48;;;1.00;;
57535;SDS011;43361;49.790;8.960;2022-07-06T20:49:08;4.03;;;1.42;;
57535;SDS011;43361;49.790;8.960;2022-07-06T20:59:08;3.65;;;1.30;;
57535;SDS011;43361;49.790;8.960;2022-07-06T21:09:10;3.80;;;1.20;;
57535;SDS011;43361;49.790;8.960;2022-07-06T21:19:10;4.47;;;1.52;;
57535;SDS011;43361;49.790;8.960;2022-07-06T21:29:12;3.53;;;1.30;;
57535;SDS011;43361;49.790;8.960;2022-07-06T21:39:13;3.88;;;1.38;;
57535;SDS011;43361;49.790;8.960;2022-07-06T21:49:15;3.85;;;1.60;;
57535;SDS011;43361;49.790;8.960;2022-07-06T21:59:15;3.08;;;1.45;;
57535;SDS011;43361;49.790;8.960;2022-07-06T22:09:17;3.58;;;1.35;;
57535;SDS011;43361;49.790;8.960;2022-07-06T22:19:18;5.40;;;1.67;;
57535;SDS011;43361;49.790;8.960;2022-07-06T22:29:20;2.70;;;1.25;;
57535;SDS011;43361;49.790;8.960;2022-07-06T22:39:20;6.63;;;1.40;;
57535;SDS011;43361;49.790;8.960;2022-07-06T22:49:22;4.70;;;1.25;;
57535;SDS011;43361;49.790;8.960;2022-07-06T22:59:22;2.75;;;0.95;;
57535;SDS011;43361;49.790;8.960;2022-07-06T23:09:24;3.40;;;1.20;;
57535;SDS011;43361;49.790;8.960;2022-07-06T23:19:24;3.45;;;1.35;;
57535;SDS011;43361;49.790;8.960;2022-07-06T23:29:26;2.63;;;1.10;;
57535;SDS011;43361;49.790;8.960;2022-07-06T23:39:26;4.57;;;1.50;;
57535;SDS011;43361;49.790;8.960;2022-07-06T23:49:28;3.90;;;1.02;;
57535;SDS011;43361;49.790;8.960;2022-07-06T23:59:29;2.22;;;1.00;;
